Time;durP1;ratioP1;P1;durP2;ratioP2;P2;SDS_P1;SDS_P2;PMS_P1;PMS_P2;Temp;Humidity;BMP_temperature;BMP_pressure;BME280_temperature;BME280_humidity;BME280_pressure;Samples;Min_cycle;Max_cycle;Signal;HPM_P1;HPM_P2
2022/04/05 00:02:52;;;;;;;6.80;5.70;;;;;;;1.73;77.70;97356.61;218547;1277;22559;-67
2022/04/05 00:07:56;;;;;;;7.10;5.50;;;;;;;1.59;78.50;97352.19;218638;1277;22718;-67
2022/04/05 00:12:58;;;;;;;7.40;5.40;;;;;;;1.45;78.45;97340.16;218811;1277;22560;-66
2022/04/05 00:18:01;;;;;;;9.40;6.30;;;;;;;1.30;79.33;97340.84;218876;1277;22666;-69
2022/04/05 00:23:04;;;;;;;10.20;7.10;;;;;;;1.11;81.16;97325.04;218624;1277;22611;-68
2022/04/05 00:28:06;;;;;;;11.10;8.60;;;;;;;0.95;80.88;97322.64;218692;1277;23830;-69
2022/04/05 00:33:09;;;;;;;12.20;8.60;;;;;;;0.86;81.05;97325.36;218542;1277;22535;-67
2022/04/05 00:38:16;;;;;;;14.00;8.80;;;;;;;0.85;81.90;97331.80;218864;1277;23084;-67
2022/04/05 00:43:18;;;;;;;13.30;9.50;;;;;;;0.85;83.21;97314.35;218904;1276;24005;-67
2022/04/05 00:48:31;;;;;;;13.60;9.40;;;;;;;0.85;83.64;97298.69;218843;1275;24674;-66
2022/04/05 00:53:53;;;;;;;12.50;8.70;;;;;;;0.85;83.97;97291.41;219027;1277;22640;-67
2022/04/05 00:59:07;;;;;;;15.10;8.60;;;;;;;0.86;84.04;97287.88;218591;1277;22538;-69
2022/04/05 01:04:14;;;;;;;12.00;8.80;;;;;;;0.89;84.59;97289.46;218872;1277;22705;-68
2022/04/05 01:09:19;;;;;;;12.50;8.40;;;;;;;0.94;84.36;97279.77;218888;1277;22532;-67
2022/04/05 01:14:21;;;;;;;11.60;8.30;;;;;;;1.00;84.78;97274.96;218862;1277;22647;-68
2022/04/05 01:19:31;;;;;;;13.70;8.90;;;;;;;1.04;84.88;97268.96;218769;1277;24282;-67
2022/04/05 01:24:36;;;;;;;12.50;9.60;;;;;;;1.08;84.74;97261.38;218890;1277;22597;-67
2022/04/05 01:29:38;;;;;;;11.50;8.50;;;;;;;1.14;85.33;97256.94;218764;1276;22577;-68
2022/04/05 01:34:41;;;;;;;13.10;9.10;;;;;;;1.19;84.93;97251.45;218819;1275;22605;-68
2022/04/05 01:39:43;;;;;;;13.00;8.70;;;;;;;1.25;85.44;97248.86;218924;1277;24216;-68
2022/04/05 01:44:45;;;;;;;13.60;10.20;;;;;;;1.33;85.40;97251.39;218843;1277;24110;-67
2022/04/05 01:49:51;;;;;;;13.10;9.30;;;;;;;1.41;85.27;97262.09;218836;1277;25345;-67
2022/04/05 01:54:53;;;;;;;9.20;7.10;;;;;;;1.49;85.01;97257.70;218702;1277;23053;-68
2022/04/05 01:59:56;;;;;;;12.70;9.50;;;;;;;1.55;85.29;97249.99;218521;1277;25306;-67
2022/04/05 02:05:36;;;;;;;10.40;7.50;;;;;;;1.61;84.99;97243.02;218932;1277;22677;-67
2022/04/05 02:10:41;;;;;;;12.80;8.90;;;;;;;1.65;85.48;97240.20;218632;1277;22582;-68
2022/04/05 02:15:56;;;;;;;12.60;9.30;;;;;;;1.68;84.84;97234.92;218705;1277;22557;-67
2022/04/05 02:21:02;;;;;;;13.00;9.70;;;;;;;1.70;84.64;97230.64;218727;1277;22609;-68
2022/04/05 02:26:25;;;;;;;12.20;9.30;;;;;;;1.73;84.82;97225.55;218742;1277;22576;-67
2022/04/05 02:31:51;;;;;;;13.60;9.90;;;;;;;1.75;84.99;97228.30;218753;1276;22717;-69
2022/04/05 02:37:25;;;;;;;11.60;9.10;;;;;;;1.74;84.53;97222.29;218830;1275;25245;-67
2022/04/05 02:42:38;;;;;;;;;;;;;;;1.74;85.07;97229.16;218496;1277;22537;-68
2022/04/05 02:47:42;;;;;;;13.30;9.50;;;;;;;1.74;85.45;97228.84;218624;1277;22549;-68
2022/04/05 02:52:49;;;;;;;15.30;10.90;;;;;;;1.74;85.46;97227.56;218771;1277;22560;-67
2022/04/05 02:57:53;;;;;;;13.40;10.10;;;;;;;1.76;85.42;97228.04;218937;1277;22588;-67
2022/04/05 03:03:08;;;;;;;13.00;10.20;;;;;;;1.79;85.92;97222.17;218861;1275;22558;-68
2022/04/05 03:08:12;;;;;;;13.40;9.60;;;;;;;1.80;85.63;97222.00;219007;1277;22571;-68
2022/04/05 03:13:17;;;;;;;12.80;10.00;;;;;;;1.80;86.06;97224.38;218925;1277;22697;-67
2022/04/05 03:18:24;;;;;;;11.90;9.20;;;;;;;1.80;85.72;97223.00;218615;1277;22714;-69
2022/04/05 03:23:29;;;;;;;11.70;8.90;;;;;;;1.81;86.20;97217.29;218874;1277;22477;-68
2022/04/05 03:28:32;;;;;;;12.60;9.50;;;;;;;1.83;85.85;97216.81;218863;1276;25540;-66
2022/04/05 03:33:35;;;;;;;12.30;9.00;;;;;;;1.87;85.84;97213.52;219112;1276;24277;-67
2022/04/05 03:38:42;;;;;;;12.90;9.10;;;;;;;1.90;85.61;97214.10;218769;1277;24318;-68
2022/04/05 03:43:56;;;;;;;10.90;8.70;;;;;;;1.94;85.80;97211.55;218597;1277;25422;-67
2022/04/05 03:49:08;;;;;;;12.10;8.80;;;;;;;1.97;85.95;97212.91;218823;1277;22604;-68
2022/04/05 03:54:15;;;;;;;10.30;8.70;;;;;;;1.98;85.80;97212.21;218827;1277;24239;-68
2022/04/05 03:59:18;;;;;;;10.60;7.70;;;;;;;2.00;85.69;97210.67;218890;1277;22559;-68
2022/04/05 04:04:23;;;;;;;9.90;7.30;;;;;;;2.04;85.94;97212.41;219071;1277;24274;-68
2022/04/05 04:09:27;;;;;;;9.10;7.40;;;;;;;2.08;86.15;97211.02;218893;1277;22543;-67
2022/04/05 04:14:33;;;;;;;10.00;7.70;;;;;;;2.13;85.76;97216.29;218751;1276;25406;-66
2022/04/05 04:19:43;;;;;;;8.20;6.70;;;;;;;2.17;85.60;97213.45;218982;1277;22563;-67
2022/04/05 04:25:12;;;;;;;8.70;7.30;;;;;;;2.21;85.38;97213.34;218463;1277;25372;-67
2022/04/05 04:30:15;;;;;;;8.10;6.50;;;;;;;2.27;85.25;97215.00;218808;1276;22772;-67
2022/04/05 04:35:38;;;;;;;9.00;6.90;;;;;;;2.30;85.02;97217.46;218580;1277;22564;-68
2022/04/05 04:40:52;;;;;;;7.10;5.00;;;;;;;2.34;85.05;97216.60;218743;1276;25265;-68
2022/04/05 04:45:55;;;;;;;7.90;6.10;;;;;;;2.39;85.13;97219.63;218764;1276;22544;-67
2022/04/05 04:50:58;;;;;;;6.60;4.80;;;;;;;2.43;84.97;97217.56;218867;1277;23334;-68
2022/04/05 04:56:00;;;;;;;7.80;5.40;;;;;;;2.46;85.01;97218.02;218800;1276;22710;-67
2022/04/05 05:01:20;;;;;;;;;;;;;;;;;;;;;
2022/04/05 05:06:23;;;;;;;8.30;5.80;;;;;;;2.55;84.71;97223.73;219003;1276;23284;-67
2022/04/05 05:11:37;;;;;;;8.50;6.40;;;;;;;2.62;84.67;97225.52;218635;1277;22549;-69
2022/04/05 05:16:39;;;;;;;7.00;5.60;;;;;;;2.66;84.68;97228.09;218863;1276;25476;-67
2022/04/05 05:21:49;;;;;;;7.70;5.20;;;;;;;2.71;84.21;97232.40;218914;1276;22711;-68
2022/04/05 05:26:54;;;;;;;8.20;5.90;;;;;;;2.75;84.31;97232.75;218715;1278;22739;-67
2022/04/05 05:31:56;;;;;;;6.30;5.60;;;;;;;2.80;84.15;97239.64;218930;1276;22559;-68
2022/04/05 05:37:13;;;;;;;;;;;;;;;;;;;;;
2022/04/05 05:42:18;;;;;;;7.50;6.20;;;;;;;2.88;84.31;97245.04;218887;1276;22735;-68
2022/04/05 05:47:20;;;;;;;8.80;6.40;;;;;;;2.94;83.85;97241.19;218599;1276;22784;-67
2022/04/05 05:52:35;;;;;;;9.60;7.30;;;;;;;2.96;84.03;97245.14;218465;1276;23784;-67
2022/04/05 05:58:14;;;;;;;8.00;5.90;;;;;;;3.01;83.82;97247.64;218369;1276;22548;-67
2022/04/05 06:03:17;;;;;;;6.90;5.50;;;;;;;3.08;83.45;97248.59;218782;1276;22667;-67
2022/04/05 06:08:20;;;;;;;7.60;5.80;;;;;;;3.16;83.51;97258.73;218338;1276;25313;-67
2022/04/05 06:13:24;;;;;;;7.10;5.50;;;;;;;3.21;83.45;97266.48;218564;1276;25725;-67
2022/04/05 06:18:47;;;;;;;7.00;5.50;;;;;;;3.26;83.26;97267.71;219068;1277;25448;-68
2022/04/05 06:24:09;;;;;;;7.00;4.80;;;;;;;3.31;83.42;97275.30;218439;1277;22576;-67
2022/04/05 06:29:12;;;;;;;7.80;6.10;;;;;;;3.32;83.54;97272.44;218493;1276;25242;-70
2022/04/05 06:34:14;;;;;;;8.60;6.80;;;;;;;3.35;83.55;97270.92;220047;1277;22573;-68
2022/04/05 06:39:19;;;;;;;10.30;7.80;;;;;;;3.41;83.67;97274.80;218317;1277;22592;-68
2022/04/05 06:44:22;;;;;;;11.30;8.00;;;;;;;3.48;83.67;97276.58;218172;1276;22615;-69
2022/04/05 06:49:27;;;;;;;8.50;7.40;;;;;;;3.57;83.47;97274.74;218208;1277;22554;-68
2022/04/05 06:54:32;;;;;;;10.90;7.90;;;;;;;3.68;83.43;97282.80;218346;1277;22630;-68
2022/04/05 06:59:35;;;;;;;11.20;7.70;;;;;;;3.78;83.21;97286.16;218511;1277;24071;-69
2022/04/05 07:04:42;;;;;;;8.60;7.20;;;;;;;3.85;83.06;97285.04;218520;1276;25446;-68
2022/04/05 07:09:47;;;;;;;9.30;7.10;;;;;;;3.87;83.08;97288.14;219080;1276;22703;-69
2022/04/05 07:14:51;;;;;;;9.20;6.40;;;;;;;3.85;83.03;97292.98;218660;1276;22611;-68
2022/04/05 07:19:54;;;;;;;7.50;6.00;;;;;;;3.82;83.38;97294.96;218787;1276;22541;-67
2022/04/05 07:24:56;;;;;;;7.80;5.90;;;;;;;3.78;83.34;97294.89;218326;1277;567211;-68
2022/04/05 07:29:58;;;;;;;8.70;6.20;;;;;;;3.72;83.67;97301.15;218547;1276;23800;-68
2022/04/05 07:35:15;;;;;;;9.10;7.00;;;;;;;3.71;83.73;97305.77;218563;1276;24282;-68
2022/04/05 07:40:18;;;;;;;8.90;7.20;;;;;;;3.75;83.94;97306.21;218662;1274;24167;-68
2022/04/05 07:45:20;;;;;;;8.70;6.60;;;;;;;3.74;84.18;97307.86;218453;1277;25253;-68
2022/04/05 07:50:23;;;;;;;7.20;5.60;;;;;;;3.71;84.57;97316.52;218317;1276;24280;-68
2022/04/05 07:55:25;;;;;;;10.30;6.60;;;;;;;3.72;84.49;97315.98;218399;1276;22563;-68
2022/04/05 08:00:32;;;;;;;7.10;5.40;;;;;;;3.78;84.62;97317.47;218508;1277;24379;-68
2022/04/05 08:05:34;;;;;;;5.80;4.90;;;;;;;3.90;84.38;97316.56;218466;1276;22551;-68
2022/04/05 08:10:36;;;;;;;6.90;4.80;;;;;;;4.02;84.05;97321.15;218500;1277;22528;-67
2022/04/05 08:15:43;;;;;;;6.10;4.90;;;;;;;4.14;84.06;97322.78;218707;1277;22687;-67
2022/04/05 08:20:45;;;;;;;6.60;4.60;;;;;;;4.30;83.85;97327.42;218493;1277;22590;-67
2022/04/05 08:25:47;;;;;;;4.20;3.80;;;;;;;4.43;83.56;97334.28;218018;1277;23808;-68
2022/04/05 08:30:50;;;;;;;3.70;2.80;;;;;;;4.53;83.04;97342.23;218296;1276;22704;-67
2022/04/05 08:35:55;;;;;;;2.50;2.30;;;;;;;4.67;82.72;97337.80;218448;1276;22561;-68
2022/04/05 08:41:12;;;;;;;3.40;2.70;;;;;;;4.87;82.54;97341.54;218452;1276;25454;-68
2022/04/05 08:46:20;;;;;;;2.70;2.40;;;;;;;5.01;81.27;97347.67;218394;1274;25279;-68
2022/04/05 08:51:22;;;;;;;3.10;1.90;;;;;;;5.16;80.73;97348.95;218386;1276;25261;-68
2022/04/05 08:56:28;;;;;;;2.50;1.80;;;;;;;5.24;79.56;97351.64;218155;1277;22710;-68
2022/04/05 09:01:34;;;;;;;2.40;1.90;;;;;;;5.25;79.43;97351.25;218481;1277;22557;-68
2022/04/05 09:06:37;;;;;;;2.20;2.00;;;;;;;5.32;79.13;97353.23;218694;1276;22572;-69
2022/04/05 09:11:56;;;;;;;4.10;3.00;;;;;;;5.45;78.92;97355.27;218368;1277;24308;-69
2022/04/05 09:17:10;;;;;;;3.10;2.00;;;;;;;5.67;78.39;97364.95;218427;1277;22582;-68
2022/04/05 09:22:13;;;;;;;2.00;1.80;;;;;;;5.97;78.25;97367.19;218654;1277;26442;-68
2022/04/05 09:27:20;;;;;;;1.80;1.70;;;;;;;6.22;76.04;97367.94;219113;1277;22581;-69
2022/04/05 09:32:34;;;;;;;3.40;2.60;;;;;;;6.41;76.82;97370.46;218874;1277;22770;-69
2022/04/05 09:37:38;;;;;;;3.00;2.40;;;;;;;6.54;75.62;97379.57;218568;1277;22645;-68
2022/04/05 09:43:04;;;;;;;2.00;1.90;;;;;;;6.50;75.72;97379.75;219197;1277;22598;-68
2022/04/05 09:48:08;;;;;;;1.90;1.70;;;;;;;6.46;75.28;97379.84;218755;1277;22575;-68
2022/04/05 09:53:13;;;;;;;2.50;1.90;;;;;;;6.44;74.78;97385.67;218644;1276;24270;-69
2022/04/05 09:58:16;;;;;;;3.30;2.60;;;;;;;6.37;75.13;97385.61;218579;1277;22538;-68
2022/04/05 10:03:19;;;;;;;2.50;1.90;;;;;;;6.30;74.49;97383.21;218694;1276;22553;-69
2022/04/05 10:08:23;;;;;;;2.20;2.00;;;;;;;6.26;74.54;97396.01;218634;1277;23464;-69
2022/04/05 10:13:27;;;;;;;3.50;2.40;;;;;;;6.27;74.94;97393.37;218682;1277;22554;-69
2022/04/05 10:18:34;;;;;;;4.60;2.70;;;;;;;6.31;75.24;97399.80;218734;1277;22649;-69
2022/04/05 10:23:43;;;;;;;3.50;2.70;;;;;;;6.23;76.14;97403.86;218269;1279;22714;-69
2022/04/05 10:28:48;;;;;;;3.30;2.10;;;;;;;6.23;76.77;97405.26;218641;1277;22553;-68
2022/04/05 10:34:25;;;;;;;3.20;2.40;;;;;;;6.32;76.02;97408.01;218485;1277;25550;-68
2022/04/05 10:39:28;;;;;;;2.80;2.50;;;;;;;6.39;75.73;97416.41;218518;1276;22724;-69
2022/04/05 10:44:30;;;;;;;1.80;1.70;;;;;;;6.43;74.85;97417.66;218692;1277;24381;-69
2022/04/05 10:49:42;;;;;;;2.30;2.10;;;;;;;6.41;74.31;97421.48;218620;1277;24454;-68
2022/04/05 10:54:51;;;;;;;2.40;2.20;;;;;;;6.37;74.42;97416.61;218481;1276;22557;-69
2022/04/05 10:59:56;;;;;;;2.70;2.30;;;;;;;6.32;74.57;97419.78;218618;1276;24254;-68
2022/04/05 11:05:31;;;;;;;2.60;2.20;;;;;;;6.22;74.28;97427.24;218867;1276;22567;-69
2022/04/05 11:10:41;;;;;;;3.30;3.00;;;;;;;6.12;74.58;97428.95;218479;1277;24240;-68
2022/04/05 11:15:48;;;;;;;3.40;2.70;;;;;;;6.05;74.49;97425.14;218927;1276;24228;-68
2022/04/05 11:20:54;;;;;;;3.20;2.60;;;;;;;6.02;74.32;97425.83;218741;1277;26233;-69
2022/04/05 11:26:25;;;;;;;3.70;3.20;;;;;;;6.03;74.46;97424.48;218612;1277;25444;-68
2022/04/05 11:31:39;;;;;;;4.80;2.20;;;;;;;6.18;74.18;97421.55;218167;1276;22615;-68
2022/04/05 11:36:43;;;;;;;2.80;2.60;;;;;;;6.31;74.67;97427.56;218892;1277;22659;-67
2022/04/05 11:41:46;;;;;;;3.90;3.00;;;;;;;6.44;74.48;97422.20;218155;1274;25383;-68
2022/04/05 11:46:51;;;;;;;2.80;2.50;;;;;;;6.53;74.22;97428.83;218777;1276;25226;-70
2022/04/05 11:51:54;;;;;;;2.90;2.60;;;;;;;6.55;73.19;97425.27;218453;1276;22538;-69
2022/04/05 11:57:05;;;;;;;2.90;2.70;;;;;;;6.53;73.51;97421.42;218291;1277;25256;-70
2022/04/05 12:02:07;;;;;;;3.30;3.00;;;;;;;6.51;73.49;97432.69;218625;1277;22584;-70
2022/04/05 12:07:10;;;;;;;3.70;3.40;;;;;;;6.52;73.74;97429.80;218364;1277;22556;-69
2022/04/05 12:12:14;;;;;;;4.10;3.70;;;;;;;6.56;73.46;97442.66;220356;1277;22538;-70
2022/04/05 12:17:23;;;;;;;3.80;3.40;;;;;;;6.61;74.10;97455.38;220458;1277;25415;-70
2022/04/05 12:22:32;;;;;;;4.50;3.80;;;;;;;6.68;74.42;97456.54;220394;1277;22660;-71
2022/04/05 12:27:34;;;;;;;4.90;4.20;;;;;;;6.79;74.97;97465.05;219947;1277;25877;-69
2022/04/05 12:32:38;;;;;;;5.30;4.80;;;;;;;6.80;74.79;97468.22;218556;1277;23535;-70
2022/04/05 12:37:41;;;;;;;6.50;4.40;;;;;;;6.77;74.54;97468.71;219267;1276;25399;-69
2022/04/05 12:42:43;;;;;;;5.80;5.20;;;;;;;6.79;75.19;97468.23;218565;1277;22542;-70
2022/04/05 12:47:46;;;;;;;5.90;5.30;;;;;;;6.90;75.53;97450.41;218321;1276;25373;-69
2022/04/05 12:52:59;;;;;;;5.30;4.80;;;;;;;6.98;75.27;97457.40;218440;1277;25444;-69
2022/04/05 12:58:03;;;;;;;5.00;4.40;;;;;;;6.94;75.28;97464.04;219100;1277;24770;-69
2022/04/05 13:03:06;;;;;;;5.40;4.90;;;;;;;7.05;75.03;97453.52;218414;1277;25250;-70
2022/04/05 13:08:15;;;;;;;5.90;5.20;;;;;;;7.18;74.77;97455.42;218268;1276;25257;-69
2022/04/05 13:13:34;;;;;;;5.70;5.10;;;;;;;7.21;74.56;97462.65;218890;1276;24162;-69
2022/04/05 13:18:36;;;;;;;5.80;5.20;;;;;;;7.11;74.36;97467.91;218568;1277;23830;-68
2022/04/05 13:23:39;;;;;;;5.10;4.60;;;;;;;7.02;74.32;97472.45;218133;1277;26737;-68
2022/04/05 13:28:42;;;;;;;6.70;4.60;;;;;;;6.90;74.36;97469.88;218241;1276;25395;-69
2022/04/05 13:33:45;;;;;;;6.30;5.20;;;;;;;6.80;74.93;97473.88;218283;1276;25613;-69
2022/04/05 13:38:47;;;;;;;6.10;5.50;;;;;;;6.74;74.64;97471.38;218530;1277;25386;-67
2022/04/05 13:43:52;;;;;;;5.60;5.00;;;;;;;6.72;75.02;97465.19;218114;1277;22547;-69
2022/04/05 13:48:58;;;;;;;6.40;5.00;;;;;;;6.76;75.22;97471.62;218222;1278;25406;-69
2022/04/05 13:54:01;;;;;;;5.80;5.20;;;;;;;6.81;75.02;97482.79;218382;1277;25266;-69
2022/04/05 13:59:10;;;;;;;6.60;5.90;;;;;;;6.90;75.37;97489.45;218179;1276;25303;-67
2022/04/05 14:04:12;;;;;;;7.70;6.50;;;;;;;6.96;75.27;97482.84;218296;1276;23718;-69
2022/04/05 14:09:18;;;;;;;7.70;6.90;;;;;;;6.94;75.28;97476.17;218387;1277;25252;-69
2022/04/05 14:14:23;;;;;;;8.40;7.50;;;;;;;6.91;75.42;97473.20;218533;1277;22538;-69
2022/04/05 14:19:28;;;;;;;8.70;7.80;;;;;;;6.94;75.94;97465.53;218256;1277;22547;-68
2022/04/05 14:24:31;;;;;;;8.50;7.60;;;;;;;7.00;75.79;97464.70;218520;1276;22540;-68
2022/04/05 14:29:34;;;;;;;9.40;8.10;;;;;;;7.12;75.79;97468.64;218541;1277;22558;-69
2022/04/05 14:34:37;;;;;;;8.70;7.60;;;;;;;7.24;75.62;97471.48;218782;1276;22547;-69
2022/04/05 14:39:39;;;;;;;8.10;7.00;;;;;;;7.30;75.43;97465.06;218552;1277;22568;-69
2022/04/05 14:44:44;;;;;;;11.00;9.40;;;;;;;7.33;75.56;97475.13;218508;1277;22605;-69
2022/04/05 14:49:53;;;;;;;10.60;8.80;;;;;;;7.41;75.40;97464.54;218560;1277;24132;-68
2022/04/05 14:55:18;;;;;;;10.80;9.00;;;;;;;7.51;75.26;97463.19;218705;1276;25350;-68
2022/04/05 15:00:25;;;;;;;10.20;8.40;;;;;;;7.52;75.39;97467.20;218831;1277;22484;-69
2022/04/05 15:05:32;;;;;;;12.10;9.60;;;;;;;7.43;75.56;97468.10;218673;1277;25328;-68
2022/04/05 15:10:37;;;;;;;12.80;8.90;;;;;;;7.42;75.80;97458.84;218603;1278;22742;-68
2022/04/05 15:15:42;;;;;;;11.80;8.80;;;;;;;7.48;76.19;97467.68;218511;1277;23059;-69
2022/04/05 15:20:59;;;;;;;11.90;8.50;;;;;;;7.50;75.87;97476.41;218493;1277;22942;-68
2022/04/05 15:26:07;;;;;;;11.10;9.00;;;;;;;7.49;75.89;97473.92;218530;1277;25534;-67
2022/04/05 15:31:11;;;;;;;9.70;8.20;;;;;;;7.49;76.21;97468.98;218713;1277;25375;-68
2022/04/05 15:36:14;;;;;;;12.00;9.00;;;;;;;7.48;76.32;97464.20;218785;1277;22701;-68
2022/04/05 15:41:17;;;;;;;8.80;7.20;;;;;;;7.55;76.46;97464.60;218747;1277;22828;-69
2022/04/05 15:46:23;;;;;;;10.20;8.00;;;;;;;7.56;76.62;97463.45;218561;1277;22586;-69
2022/04/05 15:51:27;;;;;;;10.90;7.50;;;;;;;7.50;76.23;97463.36;218407;1278;22545;-67
2022/04/05 15:56:33;;;;;;;10.20;8.50;;;;;;;7.43;76.38;97468.58;218304;1277;22564;-68
2022/04/05 16:01:42;;;;;;;11.90;8.00;;;;;;;7.35;76.56;97475.36;218425;1278;22769;-68
2022/04/05 16:07:06;;;;;;;;;;;;;;;;;;;;;
2022/04/05 16:12:20;;;;;;;11.00;8.30;;;;;;;7.15;77.01;97470.92;218791;1277;22969;-68
2022/04/05 16:17:55;;;;;;;11.60;9.30;;;;;;;7.06;77.36;97485.48;218640;1276;22731;-70
2022/04/05 16:23:01;;;;;;;14.10;10.70;;;;;;;6.98;77.58;97487.10;219676;1277;22547;-68
2022/04/05 16:28:14;;;;;;;15.10;12.30;;;;;;;6.96;77.54;97492.09;218474;1277;25369;-68
2022/04/05 16:33:39;;;;;;;14.90;11.80;;;;;;;6.99;78.13;97485.83;218457;1277;24246;-69
2022/04/05 16:38:45;;;;;;;14.00;9.70;;;;;;;6.97;77.77;97494.32;218595;1277;22482;-68
2022/04/05 16:43:55;;;;;;;13.20;9.90;;;;;;;6.94;78.03;97497.84;218644;1277;22624;-70
2022/04/05 16:49:10;;;;;;;10.40;7.40;;;;;;;6.91;78.16;97500.93;218610;1277;22476;-68
2022/04/05 16:54:13;;;;;;;8.20;6.60;;;;;;;6.92;78.00;97498.30;218681;1277;22582;-68
2022/04/05 16:59:17;;;;;;;9.20;7.20;;;;;;;6.91;77.88;97496.79;218783;1277;22648;-68
2022/04/05 17:04:20;;;;;;;9.70;7.70;;;;;;;6.90;78.07;97493.61;219005;1277;22559;-67
2022/04/05 17:09:23;;;;;;;11.00;7.80;;;;;;;6.86;78.11;97497.73;218665;1277;22662;-67
2022/04/05 17:14:25;;;;;;;9.10;7.20;;;;;;;6.79;78.08;97501.31;218876;1278;22655;-68
2022/04/05 17:19:32;;;;;;;8.10;6.30;;;;;;;6.75;78.17;97500.70;218525;1278;23817;-69
2022/04/05 17:24:38;;;;;;;6.70;5.50;;;;;;;6.69;78.36;97494.68;218867;1277;22710;-68
2022/04/05 17:29:50;;;;;;;6.30;5.20;;;;;;;6.64;78.49;97492.64;218593;1277;23857;-67
2022/04/05 17:35:20;;;;;;;7.20;4.60;;;;;;;6.63;78.67;97497.77;218596;1277;24069;-68
2022/04/05 17:40:31;;;;;;;5.70;4.60;;;;;;;6.65;78.44;97504.58;218693;1277;24327;-67
2022/04/05 17:45:41;;;;;;;5.50;4.30;;;;;;;6.68;78.57;97497.27;219061;1277;24302;-68
2022/04/05 17:51:11;;;;;;;6.50;4.70;;;;;;;6.67;78.50;97497.01;218916;1277;22666;-68
2022/04/05 17:56:27;;;;;;;7.00;4.60;;;;;;;6.67;78.34;97503.98;218686;1277;23052;-68
2022/04/05 18:01:43;;;;;;;6.80;4.00;;;;;;;6.66;78.21;97509.05;218630;1277;22557;-67
2022/04/05 18:06:52;;;;;;;6.90;4.80;;;;;;;6.67;78.30;97512.86;218680;1277;22582;-67
2022/04/05 18:11:57;;;;;;;5.70;4.40;;;;;;;6.69;78.22;97517.98;218571;1276;25423;-69
2022/04/05 18:17:00;;;;;;;7.20;4.70;;;;;;;6.70;78.12;97524.26;218736;1277;24248;-68
2022/04/05 18:22:06;;;;;;;5.10;4.20;;;;;;;6.68;78.08;97532.85;218589;1277;25353;-68
2022/04/05 18:27:09;;;;;;;5.00;4.00;;;;;;;6.67;77.93;97522.02;218885;1277;25405;-68
2022/04/05 18:32:20;;;;;;;5.30;4.10;;;;;;;6.65;77.63;97531.20;218681;1277;24715;-68
2022/04/05 18:37:48;;;;;;;4.70;3.70;;;;;;;6.67;77.56;97544.21;218639;1277;25379;-68
2022/04/05 18:42:54;;;;;;;4.10;3.50;;;;;;;6.69;77.56;97542.33;218791;1276;25455;-68
2022/04/05 18:47:58;;;;;;;3.90;3.10;;;;;;;6.69;77.29;97545.40;218742;1277;22566;-68
2022/04/05 18:53:00;;;;;;;6.20;3.90;;;;;;;6.73;77.27;97547.48;218727;1277;22538;-69
2022/04/05 18:58:08;;;;;;;4.70;3.60;;;;;;;6.77;76.75;97551.70;218606;1277;24178;-68
2022/04/05 19:03:11;;;;;;;4.00;3.10;;;;;;;6.80;76.63;97548.94;218878;1277;23061;-68
2022/04/05 19:08:17;;;;;;;5.10;3.00;;;;;;;6.80;76.43;97549.20;218664;1277;22551;-68
2022/04/05 19:13:22;;;;;;;5.00;2.90;;;;;;;6.81;76.43;97560.80;218693;1277;25510;-69
2022/04/05 19:18:29;;;;;;;3.80;3.30;;;;;;;6.83;76.51;97555.08;219058;1276;22681;-69
2022/04/05 19:23:32;;;;;;;4.40;3.10;;;;;;;6.84;76.33;97560.42;218556;1277;24222;-68
2022/04/05 19:28:39;;;;;;;3.20;2.90;;;;;;;6.83;76.26;97560.80;218118;1277;350501;-68
2022/04/05 19:33:42;;;;;;;4.50;3.60;;;;;;;6.82;76.33;97563.33;218445;1276;24342;-69
2022/04/05 19:38:44;;;;;;;4.50;3.40;;;;;;;6.82;76.03;97562.38;218499;1277;25365;-68
2022/04/05 19:43:48;;;;;;;5.10;3.40;;;;;;;6.80;76.33;97568.27;218508;1277;25460;-69
2022/04/05 19:48:59;;;;;;;4.90;3.70;;;;;;;6.78;76.06;97569.25;218760;1277;22572;-67
2022/04/05 19:54:10;;;;;;;4.40;3.60;;;;;;;6.76;75.96;97571.17;218651;1277;24229;-67
2022/04/05 19:59:32;;;;;;;;;;;;;;;;;;;;;
2022/04/05 20:04:42;;;;;;;5.20;4.00;;;;;;;6.63;76.34;97569.18;218651;1277;25486;-68
2022/04/05 20:09:50;;;;;;;5.00;3.80;;;;;;;6.62;76.22;97575.33;218307;1276;22568;-67
2022/04/05 20:15:36;;;;;;;6.40;4.30;;;;;;;6.63;76.40;97578.02;218259;1277;25329;-68
2022/04/05 20:20:51;;;;;;;;;;;;;;;;;;;;;
2022/04/05 20:26:09;;;;;;;6.50;4.10;;;;;;;6.51;76.60;97568.22;218552;1276;25373;-68
2022/04/05 20:31:12;;;;;;;5.00;3.60;;;;;;;6.41;76.80;97559.21;218447;1277;22604;-69
2022/04/05 20:36:21;;;;;;;4.70;3.80;;;;;;;6.34;76.90;97557.58;218177;1276;22591;-68
2022/04/05 20:41:24;;;;;;;6.10;3.90;;;;;;;6.28;77.42;97564.63;218459;1276;25264;-67
2022/04/05 20:46:29;;;;;;;5.60;4.30;;;;;;;6.29;77.46;97566.00;218529;1276;25365;-67
2022/04/05 20:51:44;;;;;;;;;;;;;;;;;;;;;
2022/04/05 20:56:49;;;;;;;5.40;4.50;;;;;;;6.40;78.03;97557.96;218197;1277;25269;-68
2022/04/05 21:01:56;;;;;;;5.60;4.40;;;;;;;6.45;77.56;97555.48;218256;1277;25255;-69
2022/04/05 21:07:04;;;;;;;6.60;5.00;;;;;;;6.49;77.78;97550.26;218828;1277;25410;-67
2022/04/05 21:12:28;;;;;;;6.30;5.50;;;;;;;6.55;78.08;97558.11;218386;1276;25511;-68
2022/04/05 21:17:33;;;;;;;6.50;5.20;;;;;;;6.58;78.09;97551.91;218269;1277;24431;-68
2022/04/05 21:22:37;;;;;;;6.10;5.20;;;;;;;6.60;78.24;97545.86;218564;1276;25412;-68
2022/04/05 21:27:43;;;;;;;5.90;5.00;;;;;;;6.62;78.32;97549.19;218646;1277;25388;-67
2022/04/05 21:32:47;;;;;;;6.60;5.40;;;;;;;6.64;78.40;97548.57;218188;1277;26169;-68
2022/04/05 21:37:50;;;;;;;6.90;5.30;;;;;;;6.66;78.75;97544.02;218331;1276;25267;-67
2022/04/05 21:43:02;;;;;;;7.10;5.30;;;;;;;6.68;78.67;97543.45;218212;1276;25265;-67
2022/04/05 21:48:14;;;;;;;5.60;5.00;;;;;;;6.70;78.66;97540.27;218271;1276;25391;-67
2022/04/05 21:53:17;;;;;;;5.50;4.90;;;;;;;6.73;78.72;97543.85;218508;1277;25253;-67
2022/04/05 21:58:20;;;;;;;6.10;4.80;;;;;;;6.78;78.93;97542.21;218448;1276;25399;-67
2022/04/05 22:03:23;;;;;;;6.20;5.20;;;;;;;6.82;78.52;97544.65;218475;1276;25501;-68
2022/04/05 22:08:36;;;;;;;5.60;5.00;;;;;;;6.82;78.40;97540.97;218401;1276;25394;-67
2022/04/05 22:13:45;;;;;;;4.70;4.10;;;;;;;6.82;78.63;97532.60;218339;1277;25324;-68
2022/04/05 22:19:07;;;;;;;;;;;;;;;;;;;;;
2022/04/05 22:24:16;;;;;;;5.50;4.90;;;;;;;6.82;79.00;97535.86;218414;1276;22556;-68
2022/04/05 22:29:28;;;;;;;7.90;5.30;;;;;;;6.80;78.94;97522.42;218350;1276;22551;-68
2022/04/05 22:34:32;;;;;;;5.20;4.70;;;;;;;6.76;79.24;97529.38;218514;1276;22538;-67
2022/04/05 22:39:38;;;;;;;5.80;5.10;;;;;;;6.74;79.02;97527.33;218656;1274;22661;-67
2022/04/05 22:44:55;;;;;;;;;;;;;;;6.73;79.22;97523.56;218350;1276;22545;-67
2022/04/05 22:49:59;;;;;;;5.80;4.80;;;;;;;6.74;79.43;97529.50;218240;1276;25304;-68
2022/04/05 22:55:08;;;;;;;5.90;5.30;;;;;;;6.75;79.11;97533.70;218631;1276;25468;-68
2022/04/05 23:00:11;;;;;;;5.50;5.00;;;;;;;6.76;79.46;97536.88;218787;1276;25396;-68
2022/04/05 23:05:14;;;;;;;5.50;5.00;;;;;;;6.75;79.25;97538.33;218632;1276;22952;-67
2022/04/05 23:10:19;;;;;;;5.40;4.90;;;;;;;6.75;79.47;97536.20;218296;1277;25423;-68
2022/04/05 23:15:24;;;;;;;5.90;5.30;;;;;;;6.79;79.40;97534.06;219157;1276;24163;-68
2022/04/05 23:20:37;;;;;;;6.10;5.10;;;;;;;6.84;79.60;97537.91;218652;1276;23265;-68
2022/04/05 23:25:40;;;;;;;6.00;5.40;;;;;;;6.88;79.76;97533.05;218530;1276;24411;-68
2022/04/05 23:30:42;;;;;;;6.40;5.00;;;;;;;6.91;79.77;97535.48;218268;1276;22548;-67
2022/04/05 23:35:44;;;;;;;5.60;5.10;;;;;;;6.96;79.73;97522.79;218474;1276;25349;-68
2022/04/05 23:40:50;;;;;;;5.90;4.80;;;;;;;6.99;79.50;97520.64;218230;1276;25322;-68
2022/04/05 23:45:55;;;;;;;5.50;5.00;;;;;;;7.00;79.38;97523.27;218566;1276;25332;-68
2022/04/05 23:51:03;;;;;;;5.20;4.70;;;;;;;7.02;79.21;97529.42;218616;1276;23634;-68
2022/04/05 23:56:07;;;;;;;5.30;4.80;;;;;;;7.06;79.48;97531.86;218593;1276;26582;-68
